createdAt,value
2023-05-10T00:00:30.259Z,101510.53
2023-05-10T00:02:57.900Z,101511.38
2023-05-10T00:05:25.768Z,101509.16
2023-05-10T00:07:53.362Z,101505.31
2023-05-10T00:10:20.965Z,101502.97
2023-05-10T00:12:48.583Z,101502.19
2023-05-10T00:15:16.331Z,101504.69
2023-05-10T00:17:44.051Z,101495.72
2023-05-10T00:20:12.184Z,101500.31
2023-05-10T00:22:39.812Z,101501.19
2023-05-10T00:25:08.290Z,101496.63
2023-05-10T00:27:36.041Z,101500.03
2023-05-10T00:30:03.845Z,101499.81
2023-05-10T00:32:31.885Z,101498.66
2023-05-10T00:34:59.649Z,101499.94
2023-05-10T00:37:28.201Z,101494.94
2023-05-10T00:39:56.503Z,101497.56
2023-05-10T00:42:24.308Z,101498.50
2023-05-10T00:44:54.211Z,101493.41
2023-05-10T00:47:22.013Z,101497.03
2023-05-10T00:49:49.710Z,101497.03
2023-05-10T00:52:17.415Z,101492.91
2023-05-10T00:54:45.142Z,101491.13
2023-05-10T00:57:12.695Z,101498.97
2023-05-10T00:59:40.900Z,101491.19
2023-05-10T01:02:08.447Z,101495.19
2023-05-10T01:04:36.553Z,101501.16
2023-05-10T01:07:04.782Z,101497.72
2023-05-10T01:09:33.909Z,101494.72
2023-05-10T01:12:02.897Z,101490.91
2023-05-10T01:14:31.838Z,101497.19
2023-05-10T01:16:59.886Z,101493.50
2023-05-10T01:19:30.705Z,101492.75
2023-05-10T01:22:32.394Z,101500.75
2023-05-10T01:24:59.887Z,101503.34
2023-05-10T01:27:39.677Z,101497.50
2023-05-10T01:30:24.985Z,101495.94
2023-05-10T01:33:01.581Z,101496.56
2023-05-10T01:35:35.815Z,101501.41
2023-05-10T01:38:23.790Z,101490.06
2023-05-10T01:41:02.082Z,101487.56
2023-05-10T01:43:34.594Z,101492.94
2023-05-10T01:46:11.582Z,101491.28
2023-05-10T01:48:48.006Z,101486.06
2023-05-10T01:51:21.550Z,101482.66
2023-05-10T01:53:50.686Z,101485.47
2023-05-10T01:56:25.213Z,101481.19
2023-05-10T01:58:54.145Z,101482.91
2023-05-10T02:01:23.348Z,101484.13
2023-05-10T02:03:53.066Z,101483.59
2023-05-10T02:06:23.393Z,101479.47
2023-05-10T02:08:53.785Z,101478.63
2023-05-10T02:11:23.563Z,101485.31
2023-05-10T02:13:52.797Z,101480.09
2023-05-10T02:16:26.374Z,101481.75
2023-05-10T02:18:57.034Z,101481.81
2023-05-10T02:21:26.101Z,101478.25
2023-05-10T02:23:55.394Z,101478.25
2023-05-10T02:26:26.314Z,101480.94
2023-05-10T02:28:57.272Z,101481.56
2023-05-10T02:31:26.170Z,101482.81
2023-05-10T02:33:55.289Z,101487.94
2023-05-10T02:36:26.513Z,101481.97
2023-05-10T02:38:55.067Z,101487.31
2023-05-10T02:41:27.377Z,101488.09
2023-05-10T02:43:58.392Z,101484.00
2023-05-10T02:46:26.638Z,101492.03
2023-05-10T02:48:54.440Z,101485.16
2023-05-10T02:51:27.465Z,101485.28
2023-05-10T02:53:56.548Z,101485.44
2023-05-10T02:56:32.914Z,101480.16
2023-05-10T02:59:00.649Z,101480.16
2023-05-10T03:01:28.607Z,101489.84
2023-05-10T03:03:56.184Z,101484.78
2023-05-10T03:06:23.989Z,101490.94
2023-05-10T03:08:51.835Z,101485.66
2023-05-10T03:11:31.659Z,101493.50
2023-05-10T03:14:12.471Z,101491.06
2023-05-10T03:17:08.340Z,101495.50
2023-05-10T03:19:55.461Z,101498.06
2023-05-10T03:22:37.525Z,101494.28
2023-05-10T03:25:07.935Z,101501.28
2023-05-10T03:27:40.292Z,101497.84
2023-05-10T03:30:11.847Z,101496.56
2023-05-10T03:32:39.928Z,101495.69
2023-05-10T03:35:13.462Z,101499.34
2023-05-10T03:37:41.231Z,101494.91
2023-05-10T03:40:09.760Z,101496.56
2023-05-10T03:42:39.322Z,101495.84
2023-05-10T03:45:08.154Z,101500.03
2023-05-10T03:47:36.279Z,101500.81
2023-05-10T03:50:04.347Z,101501.59
2023-05-10T03:52:32.997Z,101502.25
2023-05-10T03:55:00.674Z,101496.03
2023-05-10T03:57:28.338Z,101496.94
2023-05-10T03:59:56.062Z,101499.28
2023-05-10T04:02:25.546Z,101499.84
2023-05-10T04:04:53.499Z,101497.69
2023-05-10T04:07:21.372Z,101499.66
2023-05-10T04:09:49.021Z,101501.63
2023-05-10T04:12:17.119Z,101506.75
2023-05-10T04:14:44.769Z,101500.22
2023-05-10T04:17:12.428Z,101503.81
2023-05-10T04:19:40.205Z,101502.09
2023-05-10T04:22:07.810Z,101493.00
2023-05-10T04:24:35.984Z,101494.94
2023-05-10T04:27:03.666Z,101497.28
2023-05-10T04:29:31.271Z,101497.88
2023-05-10T04:31:58.854Z,101493.00
2023-05-10T04:34:26.618Z,101496.09
2023-05-10T04:36:54.241Z,101488.81
2023-05-10T04:39:22.053Z,101495.72
2023-05-10T04:41:49.630Z,101492.72
2023-05-10T04:44:17.172Z,101498.84
2023-05-10T04:46:44.901Z,101496.75
2023-05-10T04:49:12.903Z,101493.94
2023-05-10T04:51:40.645Z,101497.97
2023-05-10T04:54:08.292Z,101485.28
2023-05-10T04:56:35.897Z,101489.25
2023-05-10T04:59:03.816Z,101485.72
2023-05-10T05:01:31.524Z,101483.19
2023-05-10T05:03:59.664Z,101485.06
2023-05-10T05:06:28.406Z,101489.00
2023-05-10T05:08:56.277Z,101481.28
2023-05-10T05:11:24.032Z,101483.47
2023-05-10T05:13:51.670Z,101479.09
2023-05-10T05:16:19.266Z,101481.06
2023-05-10T05:18:46.839Z,101489.50
2023-05-10T05:21:18.565Z,101490.19
2023-05-10T05:23:46.312Z,101487.78
2023-05-10T05:26:13.858Z,101489.47
2023-05-10T05:28:41.378Z,101484.03
2023-05-10T05:31:09.404Z,101483.94
2023-05-10T05:33:37.729Z,101487.19
2023-05-10T05:36:06.663Z,101488.63
2023-05-10T05:38:34.805Z,101490.84
2023-05-10T05:41:02.471Z,101489.50
2023-05-10T05:43:30.226Z,101481.16
2023-05-10T05:45:59.153Z,101483.31
2023-05-10T05:48:26.848Z,101475.97
2023-05-10T05:50:58.657Z,101480.72
2023-05-10T05:53:26.508Z,101477.69
2023-05-10T05:55:59.303Z,101466.97
2023-05-10T05:58:27.043Z,101474.94
2023-05-10T06:00:54.660Z,101475.72
2023-05-10T06:03:22.644Z,101472.59
2023-05-10T06:05:50.409Z,101478.56
2023-05-10T06:08:17.982Z,101474.00
2023-05-10T06:10:46.393Z,101474.47
2023-05-10T06:13:13.998Z,101476.47
2023-05-10T06:15:41.768Z,101471.72
2023-05-10T06:18:10.019Z,101477.41
2023-05-10T06:20:37.890Z,101466.69
2023-05-10T06:23:05.578Z,101477.41
2023-05-10T06:25:33.193Z,101469.41
2023-05-10T06:28:01.007Z,101470.66
2023-05-10T06:30:30.347Z,101466.59
2023-05-10T06:32:58.259Z,101475.13
2023-05-10T06:35:26.068Z,101472.47
2023-05-10T06:37:53.997Z,101466.88
2023-05-10T06:40:21.849Z,101467.84
2023-05-10T06:42:49.399Z,101459.66
2023-05-10T06:45:17.637Z,101463.53
2023-05-10T06:47:45.567Z,101460.66
2023-05-10T06:50:13.171Z,101456.31
2023-05-10T06:52:41.031Z,101458.25
2023-05-10T06:55:09.873Z,101459.34
2023-05-10T06:57:37.749Z,101462.31
2023-05-10T07:00:06.110Z,101451.56
2023-05-10T07:02:34.008Z,101443.09
2023-05-10T07:05:03.144Z,101452.28
2023-05-10T07:07:32.342Z,101454.25
2023-05-10T07:10:00.290Z,101443.56
2023-05-10T07:12:27.905Z,101438.44
2023-05-10T07:14:55.431Z,101437.91
2023-05-10T07:17:23.059Z,101438.81
2023-05-10T07:19:50.899Z,101440.84
2023-05-10T07:22:18.520Z,101452.28
2023-05-10T07:24:46.562Z,101448.47
2023-05-10T07:27:14.207Z,101445.44
2023-05-10T07:29:41.760Z,101444.06
2023-05-10T07:32:09.422Z,101450.00
2023-05-10T07:34:37.181Z,101442.25
2023-05-10T07:37:04.704Z,101445.28
2023-05-10T07:39:32.225Z,101456.38
2023-05-10T07:41:59.796Z,101447.97
2023-05-10T07:44:27.428Z,101445.53
2023-05-10T07:46:54.919Z,101448.03
2023-05-10T07:49:22.449Z,101448.88
2023-05-10T07:51:50.336Z,101443.09
2023-05-10T07:54:18.321Z,101444.19
2023-05-10T07:56:48.105Z,101449.97
2023-05-10T07:59:17.559Z,101435.28
2023-05-10T08:01:45.722Z,101431.34
2023-05-10T08:04:14.008Z,101435.38
2023-05-10T08:06:41.861Z,101440.53
2023-05-10T08:09:10.517Z,101440.84
2023-05-10T08:11:38.338Z,101438.91
2023-05-10T08:14:06.229Z,101435.47
2023-05-10T08:16:33.881Z,101447.56
2023-05-10T08:19:01.513Z,101440.53
2023-05-10T08:21:29.378Z,101442.81
2023-05-10T08:23:56.921Z,101434.28
2023-05-10T08:26:24.455Z,101436.41
2023-05-10T08:28:52.112Z,101430.56
2023-05-10T08:31:19.834Z,101434.53
2023-05-10T08:33:47.431Z,101440.47
2023-05-10T08:36:20.695Z,101432.34
2023-05-10T08:38:52.123Z,101427.25
2023-05-10T08:41:24.944Z,101425.28
2023-05-10T08:43:56.014Z,101415.94
2023-05-10T08:46:24.635Z,101415.00
2023-05-10T08:48:53.267Z,101414.50
2023-05-10T08:51:26.373Z,101418.59
2023-05-10T08:53:54.079Z,101413.09
2023-05-10T08:56:21.972Z,101422.59
2023-05-10T08:58:50.811Z,101423.38
2023-05-10T09:01:20.541Z,101416.41
2023-05-10T09:03:49.342Z,101416.59
2023-05-10T09:06:17.196Z,101407.50
2023-05-10T09:08:45.897Z,101401.00
2023-05-10T09:11:13.895Z,101400.94
2023-05-10T09:13:42.592Z,101407.50
2023-05-10T09:16:21.331Z,101404.41
2023-05-10T09:18:50.698Z,101394.94
2023-05-10T09:21:18.482Z,101398.44
2023-05-10T09:23:48.688Z,101392.38
2023-05-10T09:26:17.279Z,101387.13
2023-05-10T09:28:58.506Z,101386.47
2023-05-10T09:31:45.952Z,101388.53
2023-05-10T09:34:18.281Z,101374.34
2023-05-10T09:37:03.673Z,101384.44
2023-05-10T09:39:35.335Z,101386.91
2023-05-10T09:42:05.879Z,101382.72
2023-05-10T09:44:34.964Z,101387.78
2023-05-10T09:47:03.676Z,101385.44
2023-05-10T09:49:31.827Z,101382.06
2023-05-10T09:52:09.126Z,101386.00
2023-05-10T09:54:37.405Z,101385.34
2023-05-10T09:57:04.990Z,101378.22
2023-05-10T09:59:35.934Z,101379.56
2023-05-10T10:02:03.948Z,101376.47
2023-05-10T10:04:31.778Z,101373.00
2023-05-10T10:07:05.963Z,101376.44
2023-05-10T10:09:35.421Z,101369.47
2023-05-10T10:12:04.846Z,101372.28
2023-05-10T10:14:32.875Z,101372.38
2023-05-10T10:19:35.378Z,101370.88
2023-05-10T10:22:03.252Z,101372.41
2023-05-10T10:24:31.265Z,101384.81
2023-05-10T10:27:08.896Z,101386.16
2023-05-10T10:29:53.616Z,101377.97
2023-05-10T10:32:49.516Z,101373.59
2023-05-10T10:35:17.545Z,101374.97
2023-05-10T10:37:47.327Z,101374.78
2023-05-10T10:40:41.341Z,101369.59
2023-05-10T10:43:27.810Z,101364.31
2023-05-10T10:46:16.414Z,101368.84
2023-05-10T10:49:09.019Z,101355.38
2023-05-10T10:51:40.658Z,101359.59
2023-05-10T10:54:11.687Z,101357.72
2023-05-10T10:56:39.433Z,101348.47
2023-05-10T10:59:07.037Z,101354.50
2023-05-10T11:01:36.513Z,101355.91
2023-05-10T11:04:04.281Z,101357.25
2023-05-10T11:06:33.590Z,101348.66
2023-05-10T11:09:08.305Z,101355.03
2023-05-10T11:11:37.470Z,101352.19
2023-05-10T11:14:07.282Z,101356.41
2023-05-10T11:16:45.638Z,101339.75
2023-05-10T11:19:17.716Z,101342.34
2023-05-10T11:22:06.479Z,101348.03
2023-05-10T11:24:36.901Z,101342.91
2023-05-10T11:27:04.688Z,101343.81
2023-05-10T11:29:32.817Z,101344.69
2023-05-10T11:32:01.129Z,101354.56
2023-05-10T11:34:31.475Z,101353.66
2023-05-10T11:36:59.497Z,101361.50
2023-05-10T11:39:31.286Z,101363.81
2023-05-10T11:41:59.413Z,101359.53
2023-05-10T11:44:33.692Z,101372.97
2023-05-10T11:47:04.441Z,101379.09
2023-05-10T11:49:32.284Z,101375.31
2023-05-10T11:52:09.686Z,101367.75
2023-05-10T11:54:37.517Z,101366.34
2023-05-10T11:57:05.345Z,101357.00
2023-05-10T11:59:32.933Z,101362.06
2023-05-10T12:02:00.981Z,101358.00
2023-05-10T12:04:30.870Z,101351.69
2023-05-10T12:06:58.759Z,101349.28
2023-05-10T12:09:39.748Z,101351.00
2023-05-10T12:12:11.898Z,101355.06
2023-05-10T12:14:39.634Z,101354.69
2023-05-10T12:17:07.137Z,101355.66
2023-05-10T12:19:40.750Z,101348.41
2023-05-10T12:22:08.395Z,101353.09
2023-05-10T12:24:39.076Z,101358.31
2023-05-10T12:27:09.254Z,101351.56
2023-05-10T12:29:37.250Z,101351.66
2023-05-10T12:32:05.022Z,101347.75
2023-05-10T12:34:34.268Z,101342.69
2023-05-10T12:37:02.780Z,101345.06
2023-05-10T12:39:44.000Z,101353.53
2023-05-10T12:42:12.029Z,101365.22
2023-05-10T12:44:40.265Z,101357.38
2023-05-10T12:47:07.928Z,101361.94
2023-05-10T12:49:35.516Z,101363.41
2023-05-10T12:52:03.144Z,101355.00
2023-05-10T12:54:30.953Z,101352.44
2023-05-10T12:56:58.673Z,101349.78
2023-05-10T12:59:26.183Z,101345.50
2023-05-10T13:01:53.769Z,101352.13
2023-05-10T13:04:21.331Z,101356.22
2023-05-10T13:06:48.849Z,101360.22
2023-05-10T13:09:16.466Z,101365.44
2023-05-10T13:11:44.209Z,101367.81
2023-05-10T13:14:11.894Z,101367.31
2023-05-10T13:16:39.541Z,101369.44
2023-05-10T13:19:07.229Z,101372.31
2023-05-10T13:21:34.723Z,101368.28
2023-05-10T13:24:02.575Z,101362.34
2023-05-10T13:26:30.982Z,101374.25
2023-05-10T13:28:58.550Z,101363.97
2023-05-10T13:31:26.300Z,101365.72
2023-05-10T13:33:54.071Z,101359.22
2023-05-10T13:36:21.874Z,101359.53
2023-05-10T13:38:49.470Z,101363.75
2023-05-10T13:41:17.107Z,101361.16
2023-05-10T13:43:44.838Z,101366.88
2023-05-10T13:46:12.632Z,101356.91
2023-05-10T13:48:40.298Z,101364.03
2023-05-10T13:51:08.007Z,101355.13
2023-05-10T13:53:35.957Z,101356.09
2023-05-10T13:56:04.045Z,101357.69
2023-05-10T13:58:31.710Z,101361.44
2023-05-10T14:00:59.444Z,101361.63
2023-05-10T14:03:27.192Z,101364.22
2023-05-10T14:05:55.057Z,101360.03
2023-05-10T14:08:22.790Z,101354.50
2023-05-10T14:10:51.814Z,101343.28
2023-05-10T14:13:19.599Z,101357.84
2023-05-10T14:15:47.238Z,101355.34
2023-05-10T14:18:15.412Z,101358.16
2023-05-10T14:20:43.010Z,101356.59
2023-05-10T14:23:11.952Z,101350.31
2023-05-10T14:25:41.851Z,101354.47
2023-05-10T14:28:09.518Z,101350.66
2023-05-10T14:30:37.574Z,101355.38
2023-05-10T14:33:05.273Z,101352.53
2023-05-10T14:35:33.021Z,101348.50
2023-05-10T14:38:00.551Z,101342.91
2023-05-10T14:40:28.114Z,101339.81
2023-05-10T14:42:55.731Z,101345.53
2023-05-10T14:45:24.056Z,101337.91
2023-05-10T14:47:51.822Z,101347.56
2023-05-10T14:50:35.099Z,101333.31
2023-05-10T14:53:05.175Z,101338.22
2023-05-10T14:55:33.843Z,101333.97
2023-05-10T14:58:01.449Z,101336.50
2023-05-10T15:00:30.680Z,101337.75
2023-05-10T15:02:58.873Z,101335.56
2023-05-10T15:05:27.243Z,101341.00
2023-05-10T15:07:55.612Z,101339.75
2023-05-10T15:10:23.628Z,101338.91
2023-05-10T15:12:51.562Z,101339.47
2023-05-10T15:15:19.407Z,101346.72
2023-05-10T15:17:48.834Z,101342.91
2023-05-10T15:20:16.742Z,101343.84
2023-05-10T15:22:44.442Z,101350.00
2023-05-10T15:25:11.987Z,101349.03
2023-05-10T15:27:39.663Z,101345.69
2023-05-10T15:30:08.380Z,101351.09
2023-05-10T15:32:36.294Z,101352.22
2023-05-10T15:35:04.623Z,101350.22
2023-05-10T15:37:32.385Z,101347.13
2023-05-10T15:40:04.775Z,101343.94
2023-05-10T15:42:33.570Z,101349.25
2023-05-10T15:45:01.216Z,101344.13
2023-05-10T15:47:31.229Z,101346.78
2023-05-10T15:49:58.728Z,101344.47
2023-05-10T15:52:26.250Z,101344.19
2023-05-10T15:54:54.023Z,101347.81
2023-05-10T15:57:21.591Z,101353.09
2023-05-10T15:59:49.452Z,101359.88
2023-05-10T16:02:19.396Z,101353.69
2023-05-10T16:04:47.196Z,101361.00
2023-05-10T16:07:14.763Z,101368.88
2023-05-10T16:09:42.247Z,101364.78
2023-05-10T16:12:09.751Z,101361.78
2023-05-10T16:14:37.471Z,101359.84
2023-05-10T16:17:05.123Z,101359.69
2023-05-10T16:19:32.918Z,101355.75
2023-05-10T16:22:00.648Z,101365.19
2023-05-10T16:24:28.187Z,101356.66
2023-05-10T16:26:55.697Z,101359.47
2023-05-10T16:29:23.225Z,101359.38
2023-05-10T16:31:50.733Z,101360.94
2023-05-10T16:34:18.177Z,101362.97
2023-05-10T16:36:45.734Z,101363.91
2023-05-10T16:39:13.201Z,101361.78
2023-05-10T16:41:40.772Z,101368.09
2023-05-10T16:44:08.329Z,101363.28
2023-05-10T16:46:36.654Z,101364.63
2023-05-10T16:49:04.236Z,101366.56
2023-05-10T16:51:31.809Z,101366.13
2023-05-10T16:53:59.321Z,101365.97
2023-05-10T16:56:26.831Z,101369.41
2023-05-10T16:58:54.466Z,101370.94
2023-05-10T17:01:23.254Z,101372.66
2023-05-10T17:03:52.810Z,101370.53
2023-05-10T17:06:20.474Z,101368.81
2023-05-10T17:08:48.020Z,101367.97
2023-05-10T17:11:15.594Z,101371.66
2023-05-10T17:13:43.132Z,101371.88
2023-05-10T17:16:11.073Z,101380.03
2023-05-10T17:18:38.950Z,101373.16
2023-05-10T17:21:06.570Z,101373.34
2023-05-10T17:23:34.565Z,101372.72
2023-05-10T17:26:04.657Z,101370.47
2023-05-10T17:28:32.666Z,101374.06
2023-05-10T17:31:00.547Z,101382.06
2023-05-10T17:33:28.034Z,101381.31
2023-05-10T17:35:56.396Z,101380.53
2023-05-10T17:38:23.935Z,101381.63
2023-05-10T17:40:51.586Z,101386.25
2023-05-10T17:43:20.653Z,101385.53
2023-05-10T17:45:49.771Z,101383.06
2023-05-10T17:48:17.466Z,101388.09
2023-05-10T17:50:45.106Z,101393.59
2023-05-10T17:53:12.664Z,101388.44
2023-05-10T17:55:41.659Z,101388.69
2023-05-10T17:58:11.476Z,101392.34
2023-05-10T18:00:39.572Z,101389.63
2023-05-10T18:03:07.147Z,101394.75
2023-05-10T18:05:37.333Z,101398.03
2023-05-10T18:08:06.098Z,101396.31
2023-05-10T18:10:33.947Z,101399.19
2023-05-10T18:13:05.023Z,101402.06
2023-05-10T18:15:34.625Z,101401.09
2023-05-10T18:18:04.301Z,101397.81
2023-05-10T18:20:32.190Z,101405.53
2023-05-10T18:22:59.691Z,101411.53
2023-05-10T18:25:27.430Z,101410.84
2023-05-10T18:27:54.998Z,101408.41
2023-05-10T18:30:22.756Z,101408.31
2023-05-10T18:32:50.355Z,101402.34
2023-05-10T18:35:18.027Z,101404.28
2023-05-10T18:37:45.727Z,101413.47
2023-05-10T18:40:14.733Z,101403.63
2023-05-10T18:42:42.455Z,101413.03
2023-05-10T18:45:10.181Z,101416.00
2023-05-10T18:47:37.898Z,101413.50
2023-05-10T18:50:06.516Z,101422.75
2023-05-10T18:52:36.857Z,101416.09
2023-05-10T18:55:04.783Z,101411.41
2023-05-10T18:57:32.605Z,101403.56
2023-05-10T19:00:00.223Z,101413.78
2023-05-10T19:02:27.988Z,101409.66
2023-05-10T19:04:58.866Z,101416.03
2023-05-10T19:07:26.526Z,101416.03
2023-05-10T19:09:54.085Z,101412.28
2023-05-10T19:12:21.528Z,101408.72
2023-05-10T19:14:50.489Z,101405.75
2023-05-10T19:17:17.992Z,101409.66
2023-05-10T19:19:45.717Z,101411.09
2023-05-10T19:22:13.498Z,101408.16
2023-05-10T19:24:41.076Z,101410.06
2023-05-10T19:27:08.881Z,101416.00
2023-05-10T19:29:36.765Z,101407.13
2023-05-10T19:32:05.202Z,101417.53
2023-05-10T19:34:32.917Z,101410.13
2023-05-10T19:37:00.446Z,101408.78
2023-05-10T19:39:28.118Z,101418.16
2023-05-10T19:41:55.666Z,101417.22
2023-05-10T19:44:23.943Z,101414.66
2023-05-10T19:46:51.581Z,101411.13
2023-05-10T19:49:20.272Z,101414.63
2023-05-10T19:51:47.837Z,101416.56
2023-05-10T19:54:15.312Z,101404.75
2023-05-10T19:56:42.874Z,101414.31
2023-05-10T19:59:10.356Z,101412.34
2023-05-10T20:01:38.228Z,101420.88
2023-05-10T20:04:06.097Z,101417.81
2023-05-10T20:06:33.924Z,101411.25
2023-05-10T20:09:01.449Z,101412.94
2023-05-10T20:11:29.154Z,101412.16
2023-05-10T20:13:57.074Z,101407.84
2023-05-10T20:16:26.617Z,101416.78
2023-05-10T20:18:54.768Z,101413.63
2023-05-10T20:21:23.936Z,101418.53
2023-05-10T20:23:51.458Z,101414.31
2023-05-10T20:26:19.049Z,101411.84
2023-05-10T20:28:46.508Z,101409.47
2023-05-10T20:31:14.064Z,101417.22
2023-05-10T20:33:41.751Z,101413.44
2023-05-10T20:36:09.737Z,101415.75
2023-05-10T20:38:37.325Z,101419.53
2023-05-10T20:41:04.840Z,101420.72
2023-05-10T20:43:32.649Z,101415.59
2023-05-10T20:46:05.442Z,101419.91
2023-05-10T20:48:33.322Z,101419.41
2023-05-10T20:51:02.276Z,101414.91
2023-05-10T20:53:30.082Z,101420.16
2023-05-10T20:55:57.599Z,101415.44
2023-05-10T20:58:25.127Z,101412.03
2023-05-10T21:00:52.584Z,101411.88
2023-05-10T21:07:57.026Z,101407.00
2023-05-10T21:10:28.297Z,101404.72
2023-05-10T21:12:56.208Z,101397.13
2023-05-10T21:15:24.565Z,101406.84
2023-05-10T21:17:54.072Z,101407.69
2023-05-10T21:20:21.772Z,101406.75
2023-05-10T21:22:49.344Z,101402.50
2023-05-10T21:25:17.998Z,101405.38
2023-05-10T21:27:46.080Z,101406.94
2023-05-10T21:30:13.952Z,101406.94
2023-05-10T21:34:18.074Z,101409.09
2023-05-10T21:36:45.663Z,101406.31
2023-05-10T21:39:13.436Z,101406.31
2023-05-10T21:41:41.216Z,101409.88
2023-05-10T21:44:08.804Z,101411.03
2023-05-10T21:46:36.440Z,101402.31
2023-05-10T21:49:03.975Z,101409.09
2023-05-10T21:51:32.585Z,101407.78
2023-05-10T21:54:00.126Z,101400.94
2023-05-10T21:56:27.615Z,101406.75
2023-05-10T21:58:55.140Z,101405.75
2023-05-10T22:01:22.832Z,101408.53
2023-05-10T22:03:50.652Z,101410.19
2023-05-10T22:06:19.563Z,101405.13
2023-05-10T22:08:47.651Z,101397.66
2023-05-10T22:11:15.467Z,101407.16
2023-05-10T22:13:43.037Z,101401.09
2023-05-10T22:16:10.713Z,101402.94
2023-05-10T22:18:38.652Z,101407.28
2023-05-10T22:21:06.542Z,101403.72
2023-05-10T22:23:34.078Z,101405.28
2023-05-10T22:26:02.714Z,101405.44
2023-05-10T22:28:30.601Z,101404.75
2023-05-10T22:30:58.193Z,101410.50
2023-05-10T22:33:25.834Z,101401.50
2023-05-10T22:35:53.593Z,101398.31
2023-05-10T22:38:21.550Z,101398.22
2023-05-10T22:40:49.313Z,101392.63
2023-05-10T22:43:17.638Z,101390.38
2023-05-10T22:45:45.388Z,101394.31
2023-05-10T22:48:14.737Z,101400.47
2023-05-10T22:50:42.482Z,101396.75
2023-05-10T22:53:10.854Z,101401.50
2023-05-10T22:55:38.500Z,101393.69
2023-05-10T22:58:06.870Z,101399.38
2023-05-10T23:00:34.828Z,101397.66
2023-05-10T23:03:02.495Z,101392.47
2023-05-10T23:05:30.728Z,101388.97
2023-05-10T23:07:58.662Z,101390.38
2023-05-10T23:10:27.675Z,101391.94
2023-05-10T23:12:56.246Z,101393.97
2023-05-10T23:15:24.029Z,101391.47
2023-05-10T23:17:51.618Z,101394.41
2023-05-10T23:20:19.290Z,101394.66
2023-05-10T23:22:47.338Z,101401.00
2023-05-10T23:25:14.830Z,101403.50
2023-05-10T23:27:42.778Z,101400.19
2023-05-10T23:30:10.957Z,101410.50
2023-05-10T23:32:39.191Z,101398.94
2023-05-10T23:35:07.527Z,101404.22
2023-05-10T23:37:36.210Z,101398.25
2023-05-10T23:40:04.490Z,101399.25
2023-05-10T23:42:32.937Z,101400.75
2023-05-10T23:45:00.756Z,101401.44
2023-05-10T23:47:28.394Z,101403.59
2023-05-10T23:49:56.023Z,101401.97
2023-05-10T23:52:25.139Z,101406.38
2023-05-10T23:54:53.744Z,101414.50
2023-05-10T23:57:21.562Z,101403.47
2023-05-10T23:59:49.172Z,101406.94
